Cap Theodora — SVAM5 — position and weather

sailwx.info

Track history (hours):
 
Tides and Currents Weather Stations Pressure Air Temp Water Temp Dewpoint Dewpoint Depression Visibility Wind Speed Wind Dir Waves Ship Positions

Cap Theodora

Last reported at 2015-Jul-07 21:10 UTC. Time now 2015-Jul-08 00:03 UTC.
Position N 38°21' W 022°45'.

Length 274 m; draft 9.2 m.

Type: Tanker. MMSI: 240840000.

Date/timePositionNaut miles runAvg speedWind from/ knotsBaromVisibWave heightAir tempDewpointWater temp
2015-Jul-07 21:10N 38°21' W 022°45'3814.2
2015-Jul-07 18:31N 38°29' W 023°32'1614.1
2015-Jul-07 17:24N 38°33' W 023°51'1214.3
2015-Jul-07 16:33N 38°36' W 024°06'1414.5
2015-Jul-07 15:33N 38°39' W 024°24'1614.3
2015-Jul-07 14:26N 38°42' W 024°44'1314.5
2015-Jul-07 13:33N 38°45' W 025°00'1614.1
2015-Jul-07 12:24N 38°49' W 025°20'1214.6
2015-Jul-07 11:33N 38°52' W 025°36'1414.4
2015-Jul-07 10:33N 38°55' W 025°54'1514.4
2015-Jul-07 09:33N 38°58' W 026°12'2914.5
2015-Jul-07 07:33N 39°05' W 026°48'1514.7
2015-Jul-07 06:34N 39°08' W 027°07'1414.4
2015-Jul-07 05:33N 39°11' W 027°25'1414.4
2015-Jul-07 04:33N 39°15' W 027°43'1514.7
2015-Jul-07 03:34N 39°16' W 028°02'1414.4
2015-Jul-07 02:33N 39°21' W 028°19'1414.4
2015-Jul-07 01:33N 39°24' W 028°38'1414.1
2015-Jul-07 00:34N 39°28' W 028°55'1413.9
2015-Jul-06 23:33N 39°31' W 029°13'1414.1
2015-Jul-06 22:33N 39°34' W 029°31'1413.8
2015-Jul-06 21:34N 39°37' W 029°48'1414.3
2015-Jul-06 20:33N 39°40' W 030°06'1514.6
2015-Jul-06 19:33N 39°44' W 030°25'1514.6
2015-Jul-06 18:33N 39°47' W 030°43'1514.5
2015-Jul-06 17:33N 39°50' W 031°02'1514.7
2015-Jul-06 16:33N 39°53' W 031°21'1414.5
2015-Jul-06 15:33N 39°55' W 031°39'1514.6
2015-Jul-06 14:33N 39°58' W 031°58'15014.7
2015-Jul-06 04:22N 40°24' W 035°11'  
Track history (hours):
 
Tides and Currents Weather Stations Pressure Air Temp Water Temp Dewpoint Dewpoint Depression Visibility Wind Speed Wind Dir Waves Ship Positions

Cap Theodora

Last reported at 2015-Jul-07 21:10 UTC. Time now 2015-Jul-08 00:03 UTC.
Position N 38°21' W 022°45'.

Length 274 m; draft 9.2 m.

Type: Tanker. MMSI: 240840000.

Date/timePositionNaut miles runAvg speedWind from/ knotsBaromVisibWave heightAir tempDewpointWater temp
2015-Jul-07 21:10N 38°21' W 022°45'3814.2
2015-Jul-07 18:31N 38°29' W 023°32'1614.1
2015-Jul-07 17:24N 38°33' W 023°51'1214.3
2015-Jul-07 16:33N 38°36' W 024°06'1414.5
2015-Jul-07 15:33N 38°39' W 024°24'1614.3
2015-Jul-07 14:26N 38°42' W 024°44'1314.5
2015-Jul-07 13:33N 38°45' W 025°00'1614.1
2015-Jul-07 12:24N 38°49' W 025°20'1214.6
2015-Jul-07 11:33N 38°52' W 025°36'1414.4
2015-Jul-07 10:33N 38°55' W 025°54'1514.4
2015-Jul-07 09:33N 38°58' W 026°12'2914.5
2015-Jul-07 07:33N 39°05' W 026°48'1514.7
2015-Jul-07 06:34N 39°08' W 027°07'1414.4
2015-Jul-07 05:33N 39°11' W 027°25'1414.4
2015-Jul-07 04:33N 39°15' W 027°43'1514.7
2015-Jul-07 03:34N 39°16' W 028°02'1414.4
2015-Jul-07 02:33N 39°21' W 028°19'1414.4
2015-Jul-07 01:33N 39°24' W 028°38'1414.1
2015-Jul-07 00:34N 39°28' W 028°55'1413.9
2015-Jul-06 23:33N 39°31' W 029°13'1414.1
2015-Jul-06 22:33N 39°34' W 029°31'1413.8
2015-Jul-06 21:34N 39°37' W 029°48'1414.3
2015-Jul-06 20:33N 39°40' W 030°06'1514.6
2015-Jul-06 19:33N 39°44' W 030°25'1514.6
2015-Jul-06 18:33N 39°47' W 030°43'1514.5
2015-Jul-06 17:33N 39°50' W 031°02'1514.7
2015-Jul-06 16:33N 39°53' W 031°21'1414.5
2015-Jul-06 15:33N 39°55' W 031°39'1514.6
2015-Jul-06 14:33N 39°58' W 031°58'15014.7
2015-Jul-06 04:22N 40°24' W 035°11'  

Dump ship's entire track history